Keagan Mabunda

Scout - SuperSport United
10 Sep 2028
Sonntag
Verarbeitung

Persönlichkeit

Anpassungsfähigkeit (1) Ehrgeiz (5) Kontroverse (10) Loyalität (4) Druck (15) Professionalität (11) Fairness (3) Temperament (20)

Profil

Trainerstil Demokratisch
Lizenz Kontinentale Pro
Entschlossenheit 6
Menschenführung 10
Motivation 10
Disziplin 4
Arbeitszufriedenheit
100%
Ermüdung
0%
Rolle Scout
Gehalt 55.9K p/W
Vertrag 14.03.2030

Leistung

Verhalten Gut
Trainingseffektivität
49%
Spielerentwicklung
55%
Verletzungsprävention
50%
Taktische Umsetzung
50%

Letzte Ereignisse

Nahm an einer Scouting-Besprechung teil jetzt
Spieler begutachtet 7T her
Nahm an einer Scouting-Besprechung teil 7T her
Nahm an einer Scouting-Besprechung teil 7T her
Spiel beobachtet 7T her
Nahm an einer Scouting-Besprechung teil 14T her
Nahm an einer Scouting-Besprechung teil 14T her
Spiel beobachtet 14T her

Aktuell beobachtet

60
Spieler Verein Status Fähigkeit Vertrauen Beobachtet Zuletzt beobachtet Letzte Stimme
Daniel Barrea Godoy Cruz Verloren 136 / 119 40% 1 28.08.2028 -
Jonathan Farías Torpedo Kutaisi Aktiv 106 / 95 40% 1 28.08.2028 -
Diego Gaitán Maipú Aktiv 122 / 125 40% 1 28.08.2028 -
Jacques Ekomié Wrexham Aktiv 149 / 137 40% 1 24.07.2028 -
Malik Mothersille Stockport County Aktiv 130 / 117 40% 1 24.07.2028 -
Babis Kostoulas Oxford United Aktiv 147 / 142 40% 1 02.06.2028 -
Zian Flemming Ipswich Town Verloren 129 / 128 40% 1 02.06.2028 -
Ante Crnac Bristol Rovers Aktiv 125 / 121 40% 2 31.05.2028 Mehr Infos nötig
Johnny Kenny Preston Aktiv 121 / 115 40% 1 31.05.2028 -
Charlie Kelman Barnsley Aktiv 118 / 118 40% 1 31.05.2028 -
Thierry Small Preston Aktiv 120 / 121 40% 1 24.01.2028 -
Aune Heggebø West Bromwich Albion Aktiv 120 / 132 40% 1 01.01.2028 -
Augusto Berrondo Tristán Suárez Aktiv 117 / 108 40% 1 31.12.2027 -
Bongani Zungu Ajax Cape Town Aktiv 119 / 132 40% 4 29.05.2027 -
Gaetano Castrovilli Cesena Aktiv 122 / 122 40% 1 29.05.2027 -
Martin Baturina Como Aktiv 151 / 140 40% 1 28.05.2027 -
Pontus Almqvist Parma Aktiv 121 / 136 40% 1 26.05.2027 -
Hannibal Burnley Aktiv 119 / 136 40% 2 24.05.2027 -
Stiven Shpendi Empoli Aktiv 120 / 119 40% 1 24.05.2027 -
Enrico Delprato Parma Aktiv 146 / 137 40% 1 23.05.2027 -
Ilyas Ansah Hull City Aktiv 132 / 127 40% 3 20.05.2027 -
Oswin Appollis Orlando Pirates Aktiv 116 / 127 40% 6 15.05.2027 -
Georgie Gent Barnsley Aktiv 118 / 110 40% 1 12.05.2027 -
Mathys Tel Tottenham Aktiv 135 / 146 40% 3 30.04.2027 -
Pablo García Gijón Aktiv 94 / 108 40% 1 28.04.2027 -
Ferland Mendy Real Madrid Aktiv 132 / 150 40% 1 20.04.2027 -
Bradley Cross Kaizer Chiefs Aktiv 113 / 105 40% 2 18.04.2027 -
Masindi Nemtajela Orlando Pirates Aktiv 104 / 104 40% 1 18.04.2027 -
Iker Pozo Rodina Aktiv 103 / 118 40% 1 16.04.2027 -
Thalente Mbatha Orlando Pirates Aktiv 118 / 111 40% 1 15.04.2027 -
Brooklyn Poggenpoel Maritzburg United Aktiv 112 / 110 40% 1 14.04.2027 -
Ramazan Gadjimuradov Chelyabinsk Aktiv 106 / 104 40% 1 10.04.2027 -
Yeangel Montero Naxxar Lions Aktiv 116 / 96 40% 1 06.04.2027 -
Patrick Maswanganyi Orlando Pirates Aktiv 111 / 120 40% 1 05.04.2027 -
Ronaldo Maarman University of Pretoria Aktiv 115 / 99 40% 1 05.04.2027 -
Pavel Maslov Chaika Aktiv 97 / 104 40% 1 03.04.2027 -
Mandla Kekana Ajax Cape Town Aktiv 117 / 116 40% 4 01.04.2027 -
Ilja Agapov Ufa Aktiv 99 / 124 40% 1 29.03.2027 -
David Ozoh Derby County Aktiv 122 / 133 40% 1 25.03.2027 -
Manu Morlanes Mallorca Aktiv 148 / 138 40% 1 01.01.2027 -
Álvaro Carreras Real Madrid Aktiv 157 / 152 40% 1 29.12.2026 -
Jay Stansfield Birmingham Aktiv 118 / 121 40% 1 26.12.2026 -
Thomas Carrique Andorra Aktiv 103 / 128 40% 1 23.12.2026 -
Denzel Jubitana Neftchi Aktiv 112 / 113 40% 1 22.12.2026 -
Reda Khadra Qarabag Aktiv 118 / 140 40% 2 17.12.2026 -
Romelle Donovan Brentford Aktiv 106 / 122 40% 1 08.12.2026 -
Tyrhys Dolan Espanyol Aktiv 127 / 148 40% 2 04.12.2026 -
Johnly Yfeko Exeter City Aktiv 107 / 124 40% 2 26.11.2026 -
Marcelo Allende Mamelodi Sundowns Aktiv 126 / 132 40% 2 25.11.2026 -
Suleiman Camara Slovan Bratislava Aktiv 124 / 108 40% 1 24.11.2026 -
Sandi Zajc NK Domzale Aktiv 99 / 108 40% 1 24.11.2026 -
Ryan Stirk Chesterfield Aktiv 116 / 91 40% 1 22.11.2026 -
Dean Campbell Northampton Town Aktiv 101 / 111 40% 2 21.11.2026 -
Petar Stanić Ludogorets Aktiv 140 / 135 40% 1 01.11.2026 -
Alexis Steimbach Gimnasia La Plata Aktiv 118 / 124 40% 1 18.10.2026 -
Jordan Williams Portsmouth Aktiv 113 / 115 40% 1 15.10.2026 -
Jay Matete Milton Keynes Dons Aktiv 114 / 99 40% 1 11.10.2026 -
Josh Benson Rotherham United Aktiv 118 / 113 40% 1 07.10.2026 -
Arthur Okonkwo Wrexham Aktiv 101 / 109 40% 1 02.08.2026 -
Balázs Tóth Blackburn Rovers Aktiv 116 / 113 40% 1 02.08.2026 -